sensor_id;sensor_type;location;lat;lon;timestamp;pressure;altitude;pressure_sealevel;temperature;humidity
14204;BME280;7185;51.854;6.622;2023-11-21T00:01:51;100710.16;;;14.85;68.72
14204;BME280;7185;51.854;6.622;2023-11-21T00:04:24;100708.25;;;14.90;68.71
14204;BME280;7185;51.854;6.622;2023-11-21T00:06:55;100710.00;;;14.90;68.67
14204;BME280;7185;51.854;6.622;2023-11-21T00:09:27;100712.31;;;14.74;69.17
14204;BME280;7185;51.854;6.622;2023-11-21T00:11:59;100708.88;;;14.72;68.96
14204;BME280;7185;51.854;6.622;2023-11-21T00:14:30;100707.25;;;14.68;69.09
14204;BME280;7185;51.854;6.622;2023-11-21T00:17:02;100716.25;;;14.60;69.07
14204;BME280;7185;51.854;6.622;2023-11-21T00:19:35;100722.53;;;14.56;69.22
14204;BME280;7185;51.854;6.622;2023-11-21T00:22:07;100718.34;;;14.50;69.25
14204;BME280;7185;51.854;6.622;2023-11-21T00:24:39;100723.56;;;14.52;69.34
14204;BME280;7185;51.854;6.622;2023-11-21T00:27:11;100734.03;;;14.55;69.22
14204;BME280;7185;51.854;6.622;2023-11-21T00:29:42;100728.75;;;14.55;69.28
14204;BME280;7185;51.854;6.622;2023-11-21T00:32:14;100725.28;;;14.53;69.63
14204;BME280;7185;51.854;6.622;2023-11-21T00:34:47;100724.47;;;14.51;69.75
14204;BME280;7185;51.854;6.622;2023-11-21T00:37:19;100729.50;;;14.59;69.46
14204;BME280;7185;51.854;6.622;2023-11-21T00:39:50;100721.47;;;14.62;69.41
14204;BME280;7185;51.854;6.622;2023-11-21T00:42:22;100724.00;;;14.66;69.21
14204;BME280;7185;51.854;6.622;2023-11-21T00:44:54;100730.19;;;14.65;69.17
14204;BME280;7185;51.854;6.622;2023-11-21T00:47:25;100734.56;;;14.66;69.21
14204;BME280;7185;51.854;6.622;2023-11-21T00:49:58;100731.13;;;14.63;69.24
14204;BME280;7185;51.854;6.622;2023-11-21T00:52:30;100731.22;;;14.60;69.31
14204;BME280;7185;51.854;6.622;2023-11-21T00:55:02;100726.91;;;14.57;69.37
14204;BME280;7185;51.854;6.622;2023-11-21T00:57:34;100725.94;;;14.60;69.23
14204;BME280;7185;51.854;6.622;2023-11-21T01:00:06;100733.16;;;14.55;69.57
14204;BME280;7185;51.854;6.622;2023-11-21T01:02:39;100741.19;;;14.50;69.53
14204;BME280;7185;51.854;6.622;2023-11-21T01:05:12;100744.88;;;14.46;69.93
14204;BME280;7185;51.854;6.622;2023-11-21T01:07:44;100746.47;;;14.50;69.55
14204;BME280;7185;51.854;6.622;2023-11-21T01:10:16;100756.13;;;14.51;69.46
14204;BME280;7185;51.854;6.622;2023-11-21T01:12:48;100753.50;;;14.51;69.61
14204;BME280;7185;51.854;6.622;2023-11-21T01:15:19;100753.41;;;14.54;69.52
14204;BME280;7185;51.854;6.622;2023-11-21T01:17:51;100757.00;;;14.52;69.54
14204;BME280;7185;51.854;6.622;2023-11-21T01:20:24;100760.56;;;14.49;69.60
14204;BME280;7185;51.854;6.622;2023-11-21T01:22:56;100768.97;;;14.62;69.08
14204;BME280;7185;51.854;6.622;2023-11-21T01:25:28;100769.16;;;14.56;69.31
14204;BME280;7185;51.854;6.622;2023-11-21T01:28:00;100773.75;;;14.50;69.60
14204;BME280;7185;51.854;6.622;2023-11-21T01:30:31;100776.41;;;14.49;69.34
14204;BME280;7185;51.854;6.622;2023-11-21T01:33:03;100774.72;;;14.48;69.37
14204;BME280;7185;51.854;6.622;2023-11-21T01:35:36;100773.94;;;14.44;69.38
14204;BME280;7185;51.854;6.622;2023-11-21T01:38:08;100771.13;;;14.49;69.17
14204;BME280;7185;51.854;6.622;2023-11-21T01:40:40;100776.59;;;14.43;69.31
14204;BME280;7185;51.854;6.622;2023-11-21T01:43:11;100782.06;;;14.37;69.27
14204;BME280;7185;51.854;6.622;2023-11-21T01:45:50;100785.63;;;14.35;69.42
14204;BME280;7185;51.854;6.622;2023-11-21T01:48:21;100785.25;;;14.48;69.08
14204;BME280;7185;51.854;6.622;2023-11-21T01:50:55;100790.63;;;14.45;69.11
14204;BME280;7185;51.854;6.622;2023-11-21T01:53:27;100788.81;;;14.47;69.01
14204;BME280;7185;51.854;6.622;2023-11-21T01:56:00;100794.34;;;14.38;69.39
14204;BME280;7185;51.854;6.622;2023-11-21T01:58:32;100797.75;;;14.41;69.36
14204;BME280;7185;51.854;6.622;2023-11-21T02:01:04;100794.06;;;14.47;69.18
14204;BME280;7185;51.854;6.622;2023-11-21T02:03:35;100791.00;;;14.32;69.65
14204;BME280;7185;51.854;6.622;2023-11-21T02:06:09;100788.88;;;14.15;70.63
14204;BME280;7185;51.854;6.622;2023-11-21T02:08:40;100793.66;;;14.31;69.92
14204;BME280;7185;51.854;6.622;2023-11-21T02:11:14;100787.34;;;14.37;69.70
14204;BME280;7185;51.854;6.622;2023-11-21T02:13:46;100789.16;;;14.34;69.53
14204;BME280;7185;51.854;6.622;2023-11-21T02:16:20;100796.47;;;14.26;69.72
14204;BME280;7185;51.854;6.622;2023-11-21T02:18:52;100796.59;;;14.22;69.68
14204;BME280;7185;51.854;6.622;2023-11-21T02:21:26;100798.09;;;14.30;69.44
14204;BME280;7185;51.854;6.622;2023-11-21T02:23:59;100800.47;;;14.10;69.95
14204;BME280;7185;51.854;6.622;2023-11-21T02:26:31;100803.19;;;14.07;70.25
14204;BME280;7185;51.854;6.622;2023-11-21T02:29:03;100798.94;;;14.02;70.25
14204;BME280;7185;51.854;6.622;2023-11-21T02:31:35;100802.91;;;14.16;69.65
14204;BME280;7185;51.854;6.622;2023-11-21T02:34:09;100802.19;;;14.11;69.64
14204;BME280;7185;51.854;6.622;2023-11-21T02:36:40;100806.19;;;13.94;69.85
14204;BME280;7185;51.854;6.622;2023-11-21T02:39:14;100813.38;;;13.89;70.09
14204;BME280;7185;51.854;6.622;2023-11-21T02:41:46;100810.47;;;13.98;70.02
14204;BME280;7185;51.854;6.622;2023-11-21T02:44:18;100813.13;;;13.98;70.04
14204;BME280;7185;51.854;6.622;2023-11-21T02:46:50;100807.38;;;14.14;69.58
14204;BME280;7185;51.854;6.622;2023-11-21T02:49:22;100814.34;;;14.16;69.31
14204;BME280;7185;51.854;6.622;2023-11-21T02:51:53;100812.06;;;14.04;69.66
14204;BME280;7185;51.854;6.622;2023-11-21T02:54:27;100815.59;;;14.03;69.71
14204;BME280;7185;51.854;6.622;2023-11-21T02:56:59;100816.53;;;14.02;69.71
14204;BME280;7185;51.854;6.622;2023-11-21T02:59:31;100814.75;;;14.02;69.79
14204;BME280;7185;51.854;6.622;2023-11-21T03:02:02;100812.94;;;14.05;69.90
14204;BME280;7185;51.854;6.622;2023-11-21T03:04:34;100820.75;;;14.08;69.69
14204;BME280;7185;51.854;6.622;2023-11-21T03:07:06;100824.13;;;14.13;69.77
14204;BME280;7185;51.854;6.622;2023-11-21T03:09:39;100829.22;;;14.19;69.65
14204;BME280;7185;51.854;6.622;2023-11-21T03:12:11;100830.84;;;14.23;69.67
14204;BME280;7185;51.854;6.622;2023-11-21T03:14:43;100833.41;;;14.26;69.61
14204;BME280;7185;51.854;6.622;2023-11-21T03:17:15;100835.97;;;14.28;69.64
14204;BME280;7185;51.854;6.622;2023-11-21T03:19:46;100832.44;;;14.29;69.61
14204;BME280;7185;51.854;6.622;2023-11-21T03:22:18;100838.56;;;14.29;69.56
14204;BME280;7185;51.854;6.622;2023-11-21T03:24:51;100838.56;;;14.29;69.58
14204;BME280;7185;51.854;6.622;2023-11-21T03:27:23;100841.00;;;14.35;69.44
14204;BME280;7185;51.854;6.622;2023-11-21T03:29:54;100837.47;;;14.37;69.44
14204;BME280;7185;51.854;6.622;2023-11-21T03:32:26;100847.38;;;14.28;69.75
14204;BME280;7185;51.854;6.622;2023-11-21T03:34:58;100847.13;;;14.38;69.33
14204;BME280;7185;51.854;6.622;2023-11-21T03:37:30;100843.56;;;14.39;69.41
14204;BME280;7185;51.854;6.622;2023-11-21T03:40:04;100844.53;;;14.36;69.50
14204;BME280;7185;51.854;6.622;2023-11-21T03:42:38;100850.66;;;14.37;69.59
14204;BME280;7185;51.854;6.622;2023-11-21T03:45:10;100846.28;;;14.35;69.60
14204;BME280;7185;51.854;6.622;2023-11-21T03:47:42;100850.56;;;14.40;69.35
14204;BME280;7185;51.854;6.622;2023-11-21T03:50:14;100859.41;;;14.39;69.24
14204;BME280;7185;51.854;6.622;2023-11-21T03:52:46;100857.75;;;14.34;69.49
14204;BME280;7185;51.854;6.622;2023-11-21T03:55:19;100862.88;;;14.41;69.39
14204;BME280;7185;51.854;6.622;2023-11-21T03:57:51;100863.13;;;14.31;69.74
14204;BME280;7185;51.854;6.622;2023-11-21T04:00:22;100856.81;;;14.37;69.52
14204;BME280;7185;51.854;6.622;2023-11-21T04:02:54;100856.38;;;14.21;70.10
14204;BME280;7185;51.854;6.622;2023-11-21T04:05:26;100860.09;;;14.14;70.32
14204;BME280;7185;51.854;6.622;2023-11-21T04:07:57;100863.69;;;14.13;70.29
14204;BME280;7185;51.854;6.622;2023-11-21T04:10:30;100861.06;;;14.11;70.50
14204;BME280;7185;51.854;6.622;2023-11-21T04:13:03;100854.84;;;14.14;70.33
14204;BME280;7185;51.854;6.622;2023-11-21T04:15:35;100862.06;;;14.07;70.70
14204;BME280;7185;51.854;6.622;2023-11-21T04:18:07;100857.69;;;14.06;70.80
14204;BME280;7185;51.854;6.622;2023-11-21T04:20:38;100870.19;;;13.99;70.79
14204;BME280;7185;51.854;6.622;2023-11-21T04:23:10;100872.56;;;14.09;70.33
14204;BME280;7185;51.854;6.622;2023-11-21T04:25:45;100876.22;;;14.03;70.59
14204;BME280;7185;51.854;6.622;2023-11-21T04:28:17;100878.00;;;14.02;70.78
14204;BME280;7185;51.854;6.622;2023-11-21T04:30:49;100891.16;;;14.04;70.40
14204;BME280;7185;51.854;6.622;2023-11-21T04:33:21;100894.72;;;14.01;70.61
14204;BME280;7185;51.854;6.622;2023-11-21T04:35:53;100887.47;;;14.10;70.28
14204;BME280;7185;51.854;6.622;2023-11-21T04:38:24;100894.84;;;13.98;70.54
14204;BME280;7185;51.854;6.622;2023-11-21T04:40:57;100890.13;;;14.10;69.98
14204;BME280;7185;51.854;6.622;2023-11-21T04:43:29;100902.75;;;13.98;70.26
14204;BME280;7185;51.854;6.622;2023-11-21T04:46:01;100894.44;;;14.12;69.92
14204;BME280;7185;51.854;6.622;2023-11-21T04:48:33;100901.19;;;13.91;70.61
14204;BME280;7185;51.854;6.622;2023-11-21T04:51:05;100899.28;;;13.96;70.75
14204;BME280;7185;51.854;6.622;2023-11-21T04:53:37;100901.19;;;13.91;70.57
14204;BME280;7185;51.854;6.622;2023-11-21T04:56:11;100901.19;;;13.91;70.67
14204;BME280;7185;51.854;6.622;2023-11-21T04:58:42;100900.56;;;13.81;70.97
14204;BME280;7185;51.854;6.622;2023-11-21T05:01:14;100900.47;;;13.84;70.94
14204;BME280;7185;51.854;6.622;2023-11-21T05:03:46;100908.72;;;13.72;71.23
14204;BME280;7185;51.854;6.622;2023-11-21T05:06:19;100915.28;;;13.89;70.95
14204;BME280;7185;51.854;6.622;2023-11-21T05:08:50;100925.53;;;14.01;70.75
14204;BME280;7185;51.854;6.622;2023-11-21T05:11:27;100926.88;;;13.83;71.26
14204;BME280;7185;51.854;6.622;2023-11-21T05:13:59;100931.16;;;13.87;70.93
14204;BME280;7185;51.854;6.622;2023-11-21T05:16:31;100937.41;;;13.83;71.11
14204;BME280;7185;51.854;6.622;2023-11-21T05:19:04;100936.59;;;13.81;71.15
14204;BME280;7185;51.854;6.622;2023-11-21T05:21:36;100942.56;;;13.88;71.00
14204;BME280;7185;51.854;6.622;2023-11-21T05:24:08;100945.16;;;13.89;71.15
14204;BME280;7185;51.854;6.622;2023-11-21T05:26:41;100940.78;;;13.88;71.15
14204;BME280;7185;51.854;6.622;2023-11-21T05:29:13;100945.78;;;13.99;70.92
14204;BME280;7185;51.854;6.622;2023-11-21T05:31:45;100954.81;;;13.90;70.97
14204;BME280;7185;51.854;6.622;2023-11-21T05:34:16;100961.75;;;13.93;71.06
14204;BME280;7185;51.854;6.622;2023-11-21T05:36:48;100966.88;;;13.99;70.93
14204;BME280;7185;51.854;6.622;2023-11-21T05:39:20;100966.00;;;13.98;70.99
14204;BME280;7185;51.854;6.622;2023-11-21T05:41:53;100967.66;;;14.02;70.91
14204;BME280;7185;51.854;6.622;2023-11-21T05:44:25;100975.72;;;13.96;71.14
14204;BME280;7185;51.854;6.622;2023-11-21T05:46:57;100975.84;;;13.92;71.11
14204;BME280;7185;51.854;6.622;2023-11-21T05:49:29;100966.25;;;13.89;71.49
14204;BME280;7185;51.854;6.622;2023-11-21T05:52:04;100975.00;;;13.91;71.29
14204;BME280;7185;51.854;6.622;2023-11-21T05:54:36;100984.84;;;13.83;71.79
14204;BME280;7185;51.854;6.622;2023-11-21T05:57:09;100993.88;;;13.73;72.51
14204;BME280;7185;51.854;6.622;2023-11-21T05:59:41;100997.09;;;13.85;71.73
14204;BME280;7185;51.854;6.622;2023-11-21T06:02:14;100992.59;;;13.89;71.63
14204;BME280;7185;51.854;6.622;2023-11-21T06:04:46;101001.41;;;13.88;71.76
14204;BME280;7185;51.854;6.622;2023-11-21T06:07:18;101004.72;;;13.96;71.61
14204;BME280;7185;51.854;6.622;2023-11-21T06:09:49;101000.50;;;13.89;71.74
14204;BME280;7185;51.854;6.622;2023-11-21T06:12:23;101008.25;;;13.95;71.72
14204;BME280;7185;51.854;6.622;2023-11-21T06:14:54;101003.88;;;13.94;71.81
14204;BME280;7185;51.854;6.622;2023-11-21T06:17:26;101007.31;;;13.98;71.67
14204;BME280;7185;51.854;6.622;2023-11-21T06:19:59;101008.09;;;14.01;71.88
14204;BME280;7185;51.854;6.622;2023-11-21T06:22:31;101011.63;;;14.00;71.60
14204;BME280;7185;51.854;6.622;2023-11-21T06:25:03;101015.88;;;14.06;71.24
14204;BME280;7185;51.854;6.622;2023-11-21T06:27:39;101027.63;;;13.94;71.76
14204;BME280;7185;51.854;6.622;2023-11-21T06:30:14;101033.78;;;13.93;71.94
14204;BME280;7185;51.854;6.622;2023-11-21T06:32:46;101029.56;;;13.88;72.00
14204;BME280;7185;51.854;6.622;2023-11-21T06:35:18;101038.31;;;13.88;72.03
14204;BME280;7185;51.854;6.622;2023-11-21T06:37:50;101041.53;;;13.99;71.78
14204;BME280;7185;51.854;6.622;2023-11-21T06:40:22;101050.22;;;14.05;71.72
14204;BME280;7185;51.854;6.622;2023-11-21T06:42:56;101049.34;;;14.04;71.83
14204;BME280;7185;51.854;6.622;2023-11-21T06:45:29;101051.16;;;14.02;71.89
14204;BME280;7185;51.854;6.622;2023-11-21T06:48:00;101054.91;;;13.92;71.95
14204;BME280;7185;51.854;6.622;2023-11-21T06:50:32;101055.50;;;14.05;71.87
14204;BME280;7185;51.854;6.622;2023-11-21T06:53:04;101062.56;;;14.02;71.84
14204;BME280;7185;51.854;6.622;2023-11-21T06:55:37;101067.00;;;14.00;72.05
14204;BME280;7185;51.854;6.622;2023-11-21T06:58:10;101066.09;;;14.01;72.01
14204;BME280;7185;51.854;6.622;2023-11-21T07:00:42;101070.69;;;13.95;72.01
14204;BME280;7185;51.854;6.622;2023-11-21T07:03:17;101073.78;;;14.11;71.74
14204;BME280;7185;51.854;6.622;2023-11-21T07:05:49;101068.06;;;13.93;71.91
14204;BME280;7185;51.854;6.622;2023-11-21T07:08:21;101066.09;;;14.01;71.84
14204;BME280;7185;51.854;6.622;2023-11-21T07:10:53;101077.63;;;13.97;71.92
14204;BME280;7185;51.854;6.622;2023-11-21T07:13:26;101079.59;;;13.89;72.31
14204;BME280;7185;51.854;6.622;2023-11-21T07:15:57;101082.69;;;14.05;72.04
14204;BME280;7185;51.854;6.622;2023-11-21T07:18:30;101076.59;;;14.05;71.93
14204;BME280;7185;51.854;6.622;2023-11-21T07:21:01;101076.59;;;14.05;71.92
14204;BME280;7185;51.854;6.622;2023-11-21T07:23:34;101083.59;;;14.06;72.14
14204;BME280;7185;51.854;6.622;2023-11-21T07:26:05;101081.75;;;14.08;72.09
14204;BME280;7185;51.854;6.622;2023-11-21T07:28:41;101087.97;;;14.05;72.07
14204;BME280;7185;51.854;6.622;2023-11-21T07:31:12;101091.22;;;14.16;72.10
14204;BME280;7185;51.854;6.622;2023-11-21T07:33:44;101102.56;;;14.20;71.92
14204;BME280;7185;51.854;6.622;2023-11-21T07:36:18;101110.59;;;14.14;71.94
14204;BME280;7185;51.854;6.622;2023-11-21T07:38:51;101116.56;;;14.22;71.71
14204;BME280;7185;51.854;6.622;2023-11-21T07:41:22;101113.75;;;14.28;71.49
14204;BME280;7185;51.854;6.622;2023-11-21T07:43:55;101124.47;;;14.22;71.78
14204;BME280;7185;51.854;6.622;2023-11-21T07:46:27;101134.69;;;14.36;71.49
14204;BME280;7185;51.854;6.622;2023-11-21T07:48:59;101135.63;;;14.33;71.46
14204;BME280;7185;51.854;6.622;2023-11-21T07:51:30;101142.72;;;14.31;71.52
14204;BME280;7185;51.854;6.622;2023-11-21T07:54:02;101145.34;;;14.31;71.70
14204;BME280;7185;51.854;6.622;2023-11-21T07:56:35;101150.50;;;14.36;71.74
14204;BME280;7185;51.854;6.622;2023-11-21T07:59:09;101148.72;;;14.37;71.71
14204;BME280;7185;51.854;6.622;2023-11-21T08:01:41;101149.47;;;14.42;71.82
14204;BME280;7185;51.854;6.622;2023-11-21T08:04:13;101156.41;;;14.46;72.02
14204;BME280;7185;51.854;6.622;2023-11-21T08:06:45;101152.78;;;14.50;71.84
14204;BME280;7185;51.854;6.622;2023-11-21T08:09:17;101162.22;;;14.60;71.58
14204;BME280;7185;51.854;6.622;2023-11-21T08:11:48;101166.50;;;14.64;71.19
14204;BME280;7185;51.854;6.622;2023-11-21T08:14:21;101169.56;;;14.47;71.28
14204;BME280;7185;51.854;6.622;2023-11-21T08:16:55;101176.56;;;14.48;71.81
14204;BME280;7185;51.854;6.622;2023-11-21T08:19:27;101177.16;;;14.61;71.53
14204;BME280;7185;51.854;6.622;2023-11-21T08:21:59;101183.22;;;14.63;71.58
14204;BME280;7185;51.854;6.622;2023-11-21T08:24:31;101181.34;;;14.70;71.57
14204;BME280;7185;51.854;6.622;2023-11-21T08:27:03;101190.25;;;14.64;71.73
14204;BME280;7185;51.854;6.622;2023-11-21T08:29:36;101191.00;;;14.70;71.64
14204;BME280;7185;51.854;6.622;2023-11-21T08:32:08;101201.34;;;14.79;71.60
14204;BME280;7185;51.854;6.622;2023-11-21T08:34:40;101192.28;;;14.89;71.39
14204;BME280;7185;51.854;6.622;2023-11-21T08:37:14;101197.56;;;14.89;71.18
14204;BME280;7185;51.854;6.622;2023-11-21T08:39:48;101201.78;;;14.95;70.97
14204;BME280;7185;51.854;6.622;2023-11-21T08:42:23;101208.13;;;14.89;71.18
14204;BME280;7185;51.854;6.622;2023-11-21T08:44:56;101213.41;;;14.89;71.26
14204;BME280;7185;51.854;6.622;2023-11-21T08:47:28;101211.72;;;14.85;71.16
14204;BME280;7185;51.854;6.622;2023-11-21T08:49:59;101222.19;;;14.90;71.36
14204;BME280;7185;51.854;6.622;2023-11-21T08:52:31;101225.44;;;15.00;71.42
14204;BME280;7185;51.854;6.622;2023-11-21T08:55:04;101219.25;;;15.01;71.38
14204;BME280;7185;51.854;6.622;2023-11-21T08:57:39;101219.13;;;15.05;71.46
14204;BME280;7185;51.854;6.622;2023-11-21T09:00:13;101235.84;;;15.06;70.74
14204;BME280;7185;51.854;6.622;2023-11-21T09:02:47;101230.38;;;15.12;71.13
14204;BME280;7185;51.854;6.622;2023-11-21T09:05:19;101233.66;;;15.22;70.78
14204;BME280;7185;51.854;6.622;2023-11-21T09:07:51;101224.81;;;14.90;70.59
14204;BME280;7185;51.854;6.622;2023-11-21T09:10:22;101234.75;;;15.13;71.04
14204;BME280;7185;51.854;6.622;2023-11-21T09:12:55;101243.34;;;15.21;70.71
14204;BME280;7185;51.854;6.622;2023-11-21T09:15:28;101239.69;;;15.27;70.62
14204;BME280;7185;51.854;6.622;2023-11-21T09:18:00;101247.38;;;15.35;70.54
14204;BME280;7185;51.854;6.622;2023-11-21T09:20:32;101245.41;;;15.43;69.75
14204;BME280;7185;51.854;6.622;2023-11-21T09:23:04;101260.41;;;15.42;69.12
14204;BME280;7185;51.854;6.622;2023-11-21T09:25:35;101256.91;;;15.40;69.84
14204;BME280;7185;51.854;6.622;2023-11-21T09:28:07;101263.06;;;15.41;69.75
14204;BME280;7185;51.854;6.622;2023-11-21T09:30:41;101258.72;;;15.40;70.22
14204;BME280;7185;51.854;6.622;2023-11-21T09:33:12;101264.63;;;15.48;69.98
14204;BME280;7185;51.854;6.622;2023-11-21T09:35:46;101270.91;;;15.44;69.49
14204;BME280;7185;51.854;6.622;2023-11-21T09:38:19;101282.38;;;15.43;69.79
14204;BME280;7185;51.854;6.622;2023-11-21T09:40:50;101280.47;;;15.48;69.77
14204;BME280;7185;51.854;6.622;2023-11-21T09:43:24;101277.66;;;15.54;69.38
14204;BME280;7185;51.854;6.622;2023-11-21T09:46:03;101282.16;;;15.52;69.36
14204;BME280;7185;51.854;6.622;2023-11-21T09:48:41;101286.59;;;15.50;69.68
14204;BME280;7185;51.854;6.622;2023-11-21T09:51:13;101293.50;;;15.54;69.73
14204;BME280;7185;51.854;6.622;2023-11-21T09:53:49;101288.22;;;15.56;69.40
14204;BME280;7185;51.854;6.622;2023-11-21T09:56:22;101292.53;;;15.58;69.52
14204;BME280;7185;51.854;6.622;2023-11-21T09:58:57;101287.25;;;15.58;69.58
14204;BME280;7185;51.854;6.622;2023-11-21T10:01:36;101300.13;;;15.71;69.45
14204;BME280;7185;51.854;6.622;2023-11-21T10:04:08;101294.16;;;15.62;69.50
14204;BME280;7185;51.854;6.622;2023-11-21T10:06:42;101298.44;;;15.68;69.75
14204;BME280;7185;51.854;6.622;2023-11-21T10:09:19;101305.34;;;15.72;69.73
14204;BME280;7185;51.854;6.622;2023-11-21T10:11:52;101313.97;;;15.79;69.37
14204;BME280;7185;51.854;6.622;2023-11-21T10:14:26;101321.50;;;15.63;68.97
14204;BME280;7185;51.854;6.622;2023-11-21T10:17:01;101313.34;;;15.71;69.42
14204;BME280;7185;51.854;6.622;2023-11-21T10:19:33;101323.72;;;15.77;69.08
14204;BME280;7185;51.854;6.622;2023-11-21T10:22:17;101327.13;;;15.82;69.31
14204;BME280;7185;51.854;6.622;2023-11-21T10:24:49;101318.44;;;15.77;69.21
14204;BME280;7185;51.854;6.622;2023-11-21T10:27:22;101325.56;;;15.75;69.36
14204;BME280;7185;51.854;6.622;2023-11-21T10:29:54;101323.31;;;15.61;69.18
14204;BME280;7185;51.854;6.622;2023-11-21T10:32:28;101333.69;;;15.67;69.36
14204;BME280;7185;51.854;6.622;2023-11-21T10:35:02;101331.09;;;15.66;69.21
14204;BME280;7185;51.854;6.622;2023-11-21T10:37:37;101330.50;;;15.56;68.75
14204;BME280;7185;51.854;6.622;2023-11-21T10:40:16;101335.50;;;15.67;69.10
14204;BME280;7185;51.854;6.622;2023-11-21T10:42:47;101337.41;;;15.60;69.52
14204;BME280;7185;51.854;6.622;2023-11-21T10:45:20;101339.59;;;15.77;69.49
14204;BME280;7185;51.854;6.622;2023-11-21T10:48:05;101346.47;;;15.84;69.40
14204;BME280;7185;51.854;6.622;2023-11-21T10:50:38;101343.13;;;15.76;69.51
14204;BME280;7185;51.854;6.622;2023-11-21T10:53:22;101343.25;;;15.73;69.48
14204;BME280;7185;51.854;6.622;2023-11-21T10:56:05;101346.72;;;15.75;69.53
14204;BME280;7185;51.854;6.622;2023-11-21T10:58:40;101347.38;;;15.83;69.25
14204;BME280;7185;51.854;6.622;2023-11-21T11:01:12;101353.16;;;15.65;68.98
14204;BME280;7185;51.854;6.622;2023-11-21T11:03:54;101354.78;;;15.70;69.47
14204;BME280;7185;51.854;6.622;2023-11-21T11:06:27;101347.56;;;15.75;69.20
14204;BME280;7185;51.854;6.622;2023-11-21T11:09:00;101358.09;;;15.77;69.45
14204;BME280;7185;51.854;6.622;2023-11-21T11:11:46;101357.38;;;15.72;69.42
14204;BME280;7185;51.854;6.622;2023-11-21T11:14:24;101360.88;;;15.72;69.75
14204;BME280;7185;51.854;6.622;2023-11-21T11:16:58;101360.66;;;15.80;69.27
14204;BME280;7185;51.854;6.622;2023-11-21T11:19:32;101366.38;;;15.65;70.12
14204;BME280;7185;51.854;6.622;2023-11-21T11:22:14;101370.63;;;15.70;70.13
14204;BME280;7185;51.854;6.622;2023-11-21T11:28:02;101375.94;;;15.36;71.15
14204;BME280;7185;51.854;6.622;2023-11-21T11:30:57;101365.75;;;15.55;70.49
14204;BME280;7185;51.854;6.622;2023-11-21T11:33:39;101361.16;;;15.61;69.93
14204;BME280;7185;51.854;6.622;2023-11-21T11:40:05;101362.09;;;15.60;70.21
14204;BME280;7185;51.854;6.622;2023-11-21T11:46:18;101365.81;;;15.86;69.24
14204;BME280;7185;51.854;6.622;2023-11-21T12:00:37;101404.97;;;16.05;69.28
14204;BME280;7185;51.854;6.622;2023-11-21T12:03:10;101404.28;;;15.97;69.59
14204;BME280;7185;51.854;6.622;2023-11-21T12:05:42;101408.81;;;15.93;68.69
14204;BME280;7185;51.854;6.622;2023-11-21T12:08:16;101413.97;;;15.98;68.74
14204;BME280;7185;51.854;6.622;2023-11-21T12:10:48;101421.47;;;15.80;69.04
14204;BME280;7185;51.854;6.622;2023-11-21T12:13:22;101410.91;;;15.80;69.32
14204;BME280;7185;51.854;6.622;2023-11-21T12:15:56;101436.31;;;15.87;69.63
14204;BME280;7185;51.854;6.622;2023-11-21T12:18:28;101435.47;;;15.85;69.46
14204;BME280;7185;51.854;6.622;2023-11-21T12:21:01;101439.56;;;15.97;69.04
14204;BME280;7185;51.854;6.622;2023-11-21T12:23:46;101433.38;;;15.97;69.15
14204;BME280;7185;51.854;6.622;2023-11-21T12:26:17;101432.66;;;15.91;69.21
14204;BME280;7185;51.854;6.622;2023-11-21T12:28:52;101430.13;;;15.88;69.42
14204;BME280;7185;51.854;6.622;2023-11-21T12:31:28;101433.56;;;15.90;69.25
14204;BME280;7185;51.854;6.622;2023-11-21T12:34:34;101440.66;;;15.90;69.27
14204;BME280;7185;51.854;6.622;2023-11-21T12:37:23;101447.09;;;15.78;69.54
14204;BME280;7185;51.854;6.622;2023-11-21T12:39:55;101447.22;;;15.73;69.56
14204;BME280;7185;51.854;6.622;2023-11-21T12:42:28;101449.66;;;15.83;69.07
14204;BME280;7185;51.854;6.622;2023-11-21T12:45:08;101446.31;;;15.74;68.87
14204;BME280;7185;51.854;6.622;2023-11-21T12:47:57;101445.56;;;15.69;69.55
14204;BME280;7185;51.854;6.622;2023-11-21T12:50:38;101445.22;;;15.83;68.55
14204;BME280;7185;51.854;6.622;2023-11-21T12:53:11;101447.78;;;15.86;68.74
14204;BME280;7185;51.854;6.622;2023-11-21T12:55:44;101450.50;;;15.83;68.74
14204;BME280;7185;51.854;6.622;2023-11-21T12:58:20;101460.53;;;15.69;69.00
14204;BME280;7185;51.854;6.622;2023-11-21T13:00:53;101456.03;;;15.74;68.95
14204;BME280;7185;51.854;6.622;2023-11-21T13:03:26;101469.03;;;15.82;68.99
14204;BME280;7185;51.854;6.622;2023-11-21T13:05:59;101467.94;;;15.90;68.61
14204;BME280;7185;51.854;6.622;2023-11-21T13:08:33;101471.66;;;15.83;68.69
14204;BME280;7185;51.854;6.622;2023-11-21T13:11:05;101477.13;;;15.75;68.81
14204;BME280;7185;51.854;6.622;2023-11-21T13:13:41;101477.19;;;15.74;68.73
14204;BME280;7185;51.854;6.622;2023-11-21T13:16:14;101487.66;;;15.77;69.01
14204;BME280;7185;51.854;6.622;2023-11-21T13:18:47;101483.91;;;15.87;68.43
14204;BME280;7185;51.854;6.622;2023-11-21T13:21:19;101488.16;;;15.93;68.56
14204;BME280;7185;51.854;6.622;2023-11-21T13:23:52;101489.72;;;15.66;69.02
14204;BME280;7185;51.854;6.622;2023-11-21T13:26:26;101500.81;;;15.80;68.58
14204;BME280;7185;51.854;6.622;2023-11-21T13:29:10;101496.41;;;15.79;68.70
14204;BME280;7185;51.854;6.622;2023-11-21T13:31:46;101492.75;;;15.86;68.54
14204;BME280;7185;51.854;6.622;2023-11-21T13:34:25;101494.69;;;15.78;68.45
14204;BME280;7185;51.854;6.622;2023-11-21T13:36:58;101487.91;;;15.68;69.09
14204;BME280;7185;51.854;6.622;2023-11-21T13:39:33;101496.28;;;15.85;68.45
14204;BME280;7185;51.854;6.622;2023-11-21T13:42:08;101509.06;;;15.68;68.17
14204;BME280;7185;51.854;6.622;2023-11-21T13:44:56;101512.75;;;15.60;68.45
14204;BME280;7185;51.854;6.622;2023-11-21T13:47:31;101509.06;;;15.66;68.49
14204;BME280;7185;51.854;6.622;2023-11-21T13:50:15;101512.28;;;15.79;67.72
14204;BME280;7185;51.854;6.622;2023-11-21T13:53:02;101515.03;;;15.74;67.93
14204;BME280;7185;51.854;6.622;2023-11-21T13:55:50;101517.78;;;15.70;67.81